sensor_id;sensor_type;location;lat;lon;timestamp;P1;durP1;ratioP1;P2;durP2;ratioP2
71753;SDS011;59593;51.716;7.016;2024-02-16T00:00:16;8.30;;;2.58;;
71753;SDS011;59593;51.716;7.016;2024-02-16T00:02:42;4.57;;;2.30;;
71753;SDS011;59593;51.716;7.016;2024-02-16T00:05:09;5.35;;;2.63;;
71753;SDS011;59593;51.716;7.016;2024-02-16T00:07:38;4.65;;;2.60;;
71753;SDS011;59593;51.716;7.016;2024-02-16T00:10:05;4.88;;;2.20;;
71753;SDS011;59593;51.716;7.016;2024-02-16T00:12:31;3.75;;;1.80;;
71753;SDS011;59593;51.716;7.016;2024-02-16T00:14:58;2.40;;;1.80;;
71753;SDS011;59593;51.716;7.016;2024-02-16T00:17:24;4.93;;;1.88;;
71753;SDS011;59593;51.716;7.016;2024-02-16T00:19:52;2.97;;;1.83;;
71753;SDS011;59593;51.716;7.016;2024-02-16T00:22:18;5.65;;;1.80;;
71753;SDS011;59593;51.716;7.016;2024-02-16T00:24:44;3.97;;;2.30;;
71753;SDS011;59593;51.716;7.016;2024-02-16T00:27:09;4.18;;;2.10;;
71753;SDS011;59593;51.716;7.016;2024-02-16T00:29:36;4.97;;;2.08;;
71753;SDS011;59593;51.716;7.016;2024-02-16T00:32:03;3.83;;;2.10;;
71753;SDS011;59593;51.716;7.016;2024-02-16T00:34:32;3.97;;;2.10;;
71753;SDS011;59593;51.716;7.016;2024-02-16T00:37:00;5.47;;;2.28;;
71753;SDS011;59593;51.716;7.016;2024-02-16T00:39:27;3.22;;;2.13;;
71753;SDS011;59593;51.716;7.016;2024-02-16T00:41:53;4.35;;;1.90;;
71753;SDS011;59593;51.716;7.016;2024-02-16T00:44:20;7.05;;;2.15;;
71753;SDS011;59593;51.716;7.016;2024-02-16T00:46:46;3.65;;;2.20;;
71753;SDS011;59593;51.716;7.016;2024-02-16T00:49:11;4.30;;;2.20;;
71753;SDS011;59593;51.716;7.016;2024-02-16T00:51:39;4.45;;;2.45;;
71753;SDS011;59593;51.716;7.016;2024-02-16T00:54:05;4.55;;;2.22;;
71753;SDS011;59593;51.716;7.016;2024-02-16T00:56:32;4.18;;;2.05;;
71753;SDS011;59593;51.716;7.016;2024-02-16T00:58:58;3.42;;;2.58;;
71753;SDS011;59593;51.716;7.016;2024-02-16T01:01:23;3.53;;;2.20;;
71753;SDS011;59593;51.716;7.016;2024-02-16T01:03:51;4.05;;;2.33;;
71753;SDS011;59593;51.716;7.016;2024-02-16T01:06:17;2.85;;;2.05;;
71753;SDS011;59593;51.716;7.016;2024-02-16T01:08:43;3.67;;;2.13;;
71753;SDS011;59593;51.716;7.016;2024-02-16T01:11:10;3.50;;;1.98;;
71753;SDS011;59593;51.716;7.016;2024-02-16T01:13:36;3.67;;;2.40;;
71753;SDS011;59593;51.716;7.016;2024-02-16T01:16:04;4.63;;;2.15;;
71753;SDS011;59593;51.716;7.016;2024-02-16T01:18:31;3.95;;;2.30;;
71753;SDS011;59593;51.716;7.016;2024-02-16T01:20:57;3.85;;;1.90;;
71753;SDS011;59593;51.716;7.016;2024-02-16T01:23:23;2.38;;;1.90;;
71753;SDS011;59593;51.716;7.016;2024-02-16T01:25:49;4.53;;;2.25;;
71753;SDS011;59593;51.716;7.016;2024-02-16T01:28:14;4.40;;;2.15;;
71753;SDS011;59593;51.716;7.016;2024-02-16T01:30:41;5.25;;;1.92;;
71753;SDS011;59593;51.716;7.016;2024-02-16T01:33:07;4.70;;;1.70;;
71753;SDS011;59593;51.716;7.016;2024-02-16T01:35:33;2.88;;;1.90;;
71753;SDS011;59593;51.716;7.016;2024-02-16T01:37:59;3.10;;;1.90;;
71753;SDS011;59593;51.716;7.016;2024-02-16T01:40:26;3.33;;;1.80;;
71753;SDS011;59593;51.716;7.016;2024-02-16T01:42:53;5.10;;;2.13;;
71753;SDS011;59593;51.716;7.016;2024-02-16T01:45:20;5.03;;;2.22;;
71753;SDS011;59593;51.716;7.016;2024-02-16T01:47:47;4.88;;;1.98;;
71753;SDS011;59593;51.716;7.016;2024-02-16T01:50:15;5.70;;;2.50;;
71753;SDS011;59593;51.716;7.016;2024-02-16T01:52:42;3.58;;;2.00;;
71753;SDS011;59593;51.716;7.016;2024-02-16T01:55:08;5.00;;;1.98;;
71753;SDS011;59593;51.716;7.016;2024-02-16T01:57:35;3.55;;;2.25;;
71753;SDS011;59593;51.716;7.016;2024-02-16T02:00:01;3.55;;;2.35;;
71753;SDS011;59593;51.716;7.016;2024-02-16T02:02:30;5.15;;;2.22;;
71753;SDS011;59593;51.716;7.016;2024-02-16T02:04:56;4.65;;;2.33;;
71753;SDS011;59593;51.716;7.016;2024-02-16T02:07:24;3.92;;;2.40;;
71753;SDS011;59593;51.716;7.016;2024-02-16T02:09:52;4.43;;;2.50;;
71753;SDS011;59593;51.716;7.016;2024-02-16T02:12:18;4.82;;;2.55;;
71753;SDS011;59593;51.716;7.016;2024-02-16T02:14:43;3.70;;;2.20;;
71753;SDS011;59593;51.716;7.016;2024-02-16T02:17:09;6.18;;;2.40;;
71753;SDS011;59593;51.716;7.016;2024-02-16T02:19:35;4.60;;;2.17;;
71753;SDS011;59593;51.716;7.016;2024-02-16T02:22:00;4.93;;;2.40;;
71753;SDS011;59593;51.716;7.016;2024-02-16T02:24:26;4.20;;;2.22;;
71753;SDS011;59593;51.716;7.016;2024-02-16T02:26:52;7.15;;;2.60;;
71753;SDS011;59593;51.716;7.016;2024-02-16T02:29:17;7.72;;;3.00;;
71753;SDS011;59593;51.716;7.016;2024-02-16T02:31:43;4.97;;;2.58;;
71753;SDS011;59593;51.716;7.016;2024-02-16T02:34:09;3.67;;;2.35;;
71753;SDS011;59593;51.716;7.016;2024-02-16T02:36:35;5.40;;;2.65;;
71753;SDS011;59593;51.716;7.016;2024-02-16T02:39:02;4.22;;;2.60;;
71753;SDS011;59593;51.716;7.016;2024-02-16T02:41:28;4.68;;;2.45;;
71753;SDS011;59593;51.716;7.016;2024-02-16T02:43:54;6.05;;;2.63;;
71753;SDS011;59593;51.716;7.016;2024-02-16T02:46:19;4.28;;;2.38;;
71753;SDS011;59593;51.716;7.016;2024-02-16T02:48:48;3.75;;;2.35;;
71753;SDS011;59593;51.716;7.016;2024-02-16T02:51:16;4.85;;;2.70;;
71753;SDS011;59593;51.716;7.016;2024-02-16T02:53:41;3.67;;;2.50;;
71753;SDS011;59593;51.716;7.016;2024-02-16T02:56:08;4.90;;;2.65;;
71753;SDS011;59593;51.716;7.016;2024-02-16T02:58:33;3.83;;;2.45;;
71753;SDS011;59593;51.716;7.016;2024-02-16T03:00:59;4.65;;;2.67;;
71753;SDS011;59593;51.716;7.016;2024-02-16T03:03:25;3.85;;;2.70;;
71753;SDS011;59593;51.716;7.016;2024-02-16T03:05:50;5.45;;;2.97;;
71753;SDS011;59593;51.716;7.016;2024-02-16T03:08:16;4.40;;;3.00;;
71753;SDS011;59593;51.716;7.016;2024-02-16T03:10:42;4.05;;;2.45;;
71753;SDS011;59593;51.716;7.016;2024-02-16T03:13:09;6.10;;;3.13;;
71753;SDS011;59593;51.716;7.016;2024-02-16T03:15:37;5.88;;;3.03;;
71753;SDS011;59593;51.716;7.016;2024-02-16T03:18:04;5.80;;;2.67;;
71753;SDS011;59593;51.716;7.016;2024-02-16T03:20:33;3.60;;;2.45;;
71753;SDS011;59593;51.716;7.016;2024-02-16T03:22:58;3.92;;;2.60;;
71753;SDS011;59593;51.716;7.016;2024-02-16T03:25:24;8.02;;;3.17;;
71753;SDS011;59593;51.716;7.016;2024-02-16T03:27:50;6.90;;;3.17;;
71753;SDS011;59593;51.716;7.016;2024-02-16T03:30:18;4.82;;;3.08;;
71753;SDS011;59593;51.716;7.016;2024-02-16T03:32:47;5.90;;;2.97;;
71753;SDS011;59593;51.716;7.016;2024-02-16T03:35:14;5.00;;;2.80;;
71753;SDS011;59593;51.716;7.016;2024-02-16T03:37:41;5.22;;;2.53;;
71753;SDS011;59593;51.716;7.016;2024-02-16T03:40:07;5.60;;;2.75;;
71753;SDS011;59593;51.716;7.016;2024-02-16T03:42:34;7.00;;;3.15;;
71753;SDS011;59593;51.716;7.016;2024-02-16T03:45:00;5.22;;;2.60;;
71753;SDS011;59593;51.716;7.016;2024-02-16T03:47:27;5.03;;;2.75;;
71753;SDS011;59593;51.716;7.016;2024-02-16T03:49:53;3.83;;;2.70;;
71753;SDS011;59593;51.716;7.016;2024-02-16T03:52:19;5.35;;;2.80;;
71753;SDS011;59593;51.716;7.016;2024-02-16T03:54:45;7.35;;;3.40;;
71753;SDS011;59593;51.716;7.016;2024-02-16T03:57:13;4.78;;;2.70;;
71753;SDS011;59593;51.716;7.016;2024-02-16T03:59:41;7.72;;;3.15;;
71753;SDS011;59593;51.716;7.016;2024-02-16T04:02:08;4.25;;;2.58;;
71753;SDS011;59593;51.716;7.016;2024-02-16T04:04:34;7.07;;;3.00;;
71753;SDS011;59593;51.716;7.016;2024-02-16T04:07:00;4.85;;;2.70;;
71753;SDS011;59593;51.716;7.016;2024-02-16T04:09:26;4.35;;;2.53;;
71753;SDS011;59593;51.716;7.016;2024-02-16T04:11:52;4.80;;;2.88;;
71753;SDS011;59593;51.716;7.016;2024-02-16T04:14:17;6.50;;;2.67;;
71753;SDS011;59593;51.716;7.016;2024-02-16T04:16:43;5.57;;;2.55;;
71753;SDS011;59593;51.716;7.016;2024-02-16T04:19:09;4.72;;;2.53;;
71753;SDS011;59593;51.716;7.016;2024-02-16T04:21:35;5.45;;;2.47;;
71753;SDS011;59593;51.716;7.016;2024-02-16T04:24:00;4.97;;;2.78;;
71753;SDS011;59593;51.716;7.016;2024-02-16T04:26:26;4.05;;;2.53;;
71753;SDS011;59593;51.716;7.016;2024-02-16T04:28:51;4.97;;;3.22;;
71753;SDS011;59593;51.716;7.016;2024-02-16T04:31:17;5.05;;;2.70;;
71753;SDS011;59593;51.716;7.016;2024-02-16T04:33:42;4.13;;;2.38;;
71753;SDS011;59593;51.716;7.016;2024-02-16T04:36:08;4.75;;;2.97;;
71753;SDS011;59593;51.716;7.016;2024-02-16T04:38:34;5.07;;;2.65;;
71753;SDS011;59593;51.716;7.016;2024-02-16T04:40:59;5.30;;;2.80;;
71753;SDS011;59593;51.716;7.016;2024-02-16T04:43:25;3.42;;;2.70;;
71753;SDS011;59593;51.716;7.016;2024-02-16T04:45:51;3.58;;;2.72;;
71753;SDS011;59593;51.716;7.016;2024-02-16T04:48:16;4.40;;;2.97;;
71753;SDS011;59593;51.716;7.016;2024-02-16T04:50:42;3.78;;;2.75;;
71753;SDS011;59593;51.716;7.016;2024-02-16T04:53:07;4.57;;;2.97;;
71753;SDS011;59593;51.716;7.016;2024-02-16T04:55:33;4.25;;;2.63;;
71753;SDS011;59593;51.716;7.016;2024-02-16T04:57:59;4.22;;;3.10;;
71753;SDS011;59593;51.716;7.016;2024-02-16T05:00:25;6.00;;;3.28;;
71753;SDS011;59593;51.716;7.016;2024-02-16T05:02:50;5.75;;;3.42;;
71753;SDS011;59593;51.716;7.016;2024-02-16T05:05:17;5.25;;;3.20;;
71753;SDS011;59593;51.716;7.016;2024-02-16T05:07:46;3.97;;;2.95;;
71753;SDS011;59593;51.716;7.016;2024-02-16T05:10:13;4.10;;;3.00;;
71753;SDS011;59593;51.716;7.016;2024-02-16T05:12:38;4.45;;;3.22;;
71753;SDS011;59593;51.716;7.016;2024-02-16T05:15:04;3.55;;;3.05;;
71753;SDS011;59593;51.716;7.016;2024-02-16T05:17:31;5.05;;;3.10;;
71753;SDS011;59593;51.716;7.016;2024-02-16T05:19:56;6.35;;;3.05;;
71753;SDS011;59593;51.716;7.016;2024-02-16T05:22:22;4.32;;;2.88;;
71753;SDS011;59593;51.716;7.016;2024-02-16T05:24:47;6.75;;;3.33;;
71753;SDS011;59593;51.716;7.016;2024-02-16T05:27:13;4.95;;;2.95;;
71753;SDS011;59593;51.716;7.016;2024-02-16T05:29:39;5.57;;;3.35;;
71753;SDS011;59593;51.716;7.016;2024-02-16T05:32:06;7.45;;;3.00;;
71753;SDS011;59593;51.716;7.016;2024-02-16T05:34:32;4.78;;;3.20;;
71753;SDS011;59593;51.716;7.016;2024-02-16T05:37:05;5.50;;;3.03;;
71753;SDS011;59593;51.716;7.016;2024-02-16T05:39:32;4.88;;;3.08;;
71753;SDS011;59593;51.716;7.016;2024-02-16T05:42:00;5.78;;;2.88;;
71753;SDS011;59593;51.716;7.016;2024-02-16T05:44:26;3.67;;;2.60;;
71753;SDS011;59593;51.716;7.016;2024-02-16T05:46:52;7.35;;;2.70;;
71753;SDS011;59593;51.716;7.016;2024-02-16T05:49:19;6.55;;;2.90;;
71753;SDS011;59593;51.716;7.016;2024-02-16T05:51:44;7.03;;;3.05;;
71753;SDS011;59593;51.716;7.016;2024-02-16T05:54:30;5.07;;;2.60;;
71753;SDS011;59593;51.716;7.016;2024-02-16T05:56:56;6.10;;;3.10;;
71753;SDS011;59593;51.716;7.016;2024-02-16T05:59:22;7.13;;;3.00;;
71753;SDS011;59593;51.716;7.016;2024-02-16T06:01:50;4.95;;;2.70;;
71753;SDS011;59593;51.716;7.016;2024-02-16T06:04:15;5.63;;;2.80;;
71753;SDS011;59593;51.716;7.016;2024-02-16T06:06:41;5.85;;;2.60;;
71753;SDS011;59593;51.716;7.016;2024-02-16T06:09:07;4.20;;;2.95;;
71753;SDS011;59593;51.716;7.016;2024-02-16T06:11:32;6.15;;;2.60;;
71753;SDS011;59593;51.716;7.016;2024-02-16T06:13:58;3.65;;;2.90;;
71753;SDS011;59593;51.716;7.016;2024-02-16T06:16:23;6.65;;;3.17;;
71753;SDS011;59593;51.716;7.016;2024-02-16T06:18:51;6.57;;;3.08;;
71753;SDS011;59593;51.716;7.016;2024-02-16T06:21:16;7.25;;;3.53;;
71753;SDS011;59593;51.716;7.016;2024-02-16T06:23:42;5.88;;;3.25;;
71753;SDS011;59593;51.716;7.016;2024-02-16T06:26:08;8.07;;;3.28;;
71753;SDS011;59593;51.716;7.016;2024-02-16T06:28:34;6.82;;;3.17;;
71753;SDS011;59593;51.716;7.016;2024-02-16T06:31:00;6.43;;;3.20;;
71753;SDS011;59593;51.716;7.016;2024-02-16T06:33:25;6.47;;;3.10;;
71753;SDS011;59593;51.716;7.016;2024-02-16T06:35:51;6.80;;;2.92;;
71753;SDS011;59593;51.716;7.016;2024-02-16T06:38:16;4.70;;;3.00;;
71753;SDS011;59593;51.716;7.016;2024-02-16T06:40:42;5.55;;;3.25;;
71753;SDS011;59593;51.716;7.016;2024-02-16T06:43:08;7.57;;;2.92;;
71753;SDS011;59593;51.716;7.016;2024-02-16T06:45:35;7.97;;;2.78;;
71753;SDS011;59593;51.716;7.016;2024-02-16T06:48:01;9.57;;;3.05;;
71753;SDS011;59593;51.716;7.016;2024-02-16T06:50:26;4.78;;;2.83;;
71753;SDS011;59593;51.716;7.016;2024-02-16T06:52:52;7.85;;;2.70;;
71753;SDS011;59593;51.716;7.016;2024-02-16T06:55:20;5.60;;;3.00;;
71753;SDS011;59593;51.716;7.016;2024-02-16T06:57:45;6.40;;;2.83;;
71753;SDS011;59593;51.716;7.016;2024-02-16T07:00:11;8.07;;;3.35;;
71753;SDS011;59593;51.716;7.016;2024-02-16T07:02:38;4.55;;;2.70;;
71753;SDS011;59593;51.716;7.016;2024-02-16T07:05:03;6.57;;;3.13;;
71753;SDS011;59593;51.716;7.016;2024-02-16T07:07:29;5.93;;;2.63;;
71753;SDS011;59593;51.716;7.016;2024-02-16T07:09:57;6.22;;;2.80;;
71753;SDS011;59593;51.716;7.016;2024-02-16T07:12:23;6.47;;;2.75;;
71753;SDS011;59593;51.716;7.016;2024-02-16T07:14:48;7.43;;;3.20;;
71753;SDS011;59593;51.716;7.016;2024-02-16T07:17:15;6.75;;;2.83;;
71753;SDS011;59593;51.716;7.016;2024-02-16T07:19:40;6.28;;;2.88;;
71753;SDS011;59593;51.716;7.016;2024-02-16T07:22:06;6.32;;;3.10;;
71753;SDS011;59593;51.716;7.016;2024-02-16T07:24:31;5.97;;;2.70;;
71753;SDS011;59593;51.716;7.016;2024-02-16T07:26:58;6.40;;;2.55;;
71753;SDS011;59593;51.716;7.016;2024-02-16T07:29:23;5.70;;;2.90;;
71753;SDS011;59593;51.716;7.016;2024-02-16T07:31:49;7.60;;;2.92;;
71753;SDS011;59593;51.716;7.016;2024-02-16T07:34:17;4.70;;;2.70;;
71753;SDS011;59593;51.716;7.016;2024-02-16T07:36:42;5.43;;;2.40;;
71753;SDS011;59593;51.716;7.016;2024-02-16T07:39:08;6.15;;;2.80;;
71753;SDS011;59593;51.716;7.016;2024-02-16T07:41:37;6.43;;;2.90;;
71753;SDS011;59593;51.716;7.016;2024-02-16T07:44:03;3.55;;;2.72;;
71753;SDS011;59593;51.716;7.016;2024-02-16T07:46:29;5.75;;;2.85;;
71753;SDS011;59593;51.716;7.016;2024-02-16T07:48:55;6.05;;;2.72;;
71753;SDS011;59593;51.716;7.016;2024-02-16T07:51:20;6.88;;;2.95;;
71753;SDS011;59593;51.716;7.016;2024-02-16T07:53:46;4.57;;;2.60;;
71753;SDS011;59593;51.716;7.016;2024-02-16T07:56:12;6.30;;;3.10;;
71753;SDS011;59593;51.716;7.016;2024-02-16T07:58:38;4.85;;;2.63;;
71753;SDS011;59593;51.716;7.016;2024-02-16T08:01:08;5.63;;;2.75;;
71753;SDS011;59593;51.716;7.016;2024-02-16T08:03:35;5.03;;;2.60;;
71753;SDS011;59593;51.716;7.016;2024-02-16T08:06:01;7.57;;;2.90;;
71753;SDS011;59593;51.716;7.016;2024-02-16T08:08:27;5.75;;;2.58;;
71753;SDS011;59593;51.716;7.016;2024-02-16T08:10:53;6.50;;;2.55;;
71753;SDS011;59593;51.716;7.016;2024-02-16T08:13:18;7.93;;;2.80;;
71753;SDS011;59593;51.716;7.016;2024-02-16T08:15:45;6.60;;;3.00;;
71753;SDS011;59593;51.716;7.016;2024-02-16T08:18:12;6.18;;;2.70;;
71753;SDS011;59593;51.716;7.016;2024-02-16T08:20:38;4.32;;;2.60;;
71753;SDS011;59593;51.716;7.016;2024-02-16T08:23:04;5.97;;;2.80;;
71753;SDS011;59593;51.716;7.016;2024-02-16T08:25:29;4.90;;;2.40;;
71753;SDS011;59593;51.716;7.016;2024-02-16T08:27:55;5.07;;;2.50;;
71753;SDS011;59593;51.716;7.016;2024-02-16T08:30:21;5.53;;;2.40;;
71753;SDS011;59593;51.716;7.016;2024-02-16T08:32:47;4.95;;;2.97;;
71753;SDS011;59593;51.716;7.016;2024-02-16T08:35:13;5.97;;;2.65;;
71753;SDS011;59593;51.716;7.016;2024-02-16T08:37:39;6.93;;;3.33;;
71753;SDS011;59593;51.716;7.016;2024-02-16T08:40:07;6.55;;;2.78;;
71753;SDS011;59593;51.716;7.016;2024-02-16T08:42:33;6.78;;;2.80;;
71753;SDS011;59593;51.716;7.016;2024-02-16T08:44:59;4.50;;;2.70;;
71753;SDS011;59593;51.716;7.016;2024-02-16T08:47:25;5.78;;;2.88;;
71753;SDS011;59593;51.716;7.016;2024-02-16T08:49:51;5.43;;;2.80;;
71753;SDS011;59593;51.716;7.016;2024-02-16T08:52:16;7.35;;;2.60;;
71753;SDS011;59593;51.716;7.016;2024-02-16T08:54:42;5.10;;;2.72;;
71753;SDS011;59593;51.716;7.016;2024-02-16T08:57:09;5.72;;;3.03;;
71753;SDS011;59593;51.716;7.016;2024-02-16T08:59:35;5.82;;;2.80;;
71753;SDS011;59593;51.716;7.016;2024-02-16T09:02:00;6.13;;;2.58;;
71753;SDS011;59593;51.716;7.016;2024-02-16T09:04:26;7.38;;;2.70;;
71753;SDS011;59593;51.716;7.016;2024-02-16T09:06:51;8.00;;;2.80;;
71753;SDS011;59593;51.716;7.016;2024-02-16T09:09:18;5.53;;;2.50;;
71753;SDS011;59593;51.716;7.016;2024-02-16T09:11:44;4.65;;;2.90;;
71753;SDS011;59593;51.716;7.016;2024-02-16T09:14:09;7.63;;;2.90;;
71753;SDS011;59593;51.716;7.016;2024-02-16T09:16:35;5.00;;;2.70;;
71753;SDS011;59593;51.716;7.016;2024-02-16T09:19:01;6.38;;;3.10;;
71753;SDS011;59593;51.716;7.016;2024-02-16T09:21:26;6.45;;;2.80;;
71753;SDS011;59593;51.716;7.016;2024-02-16T09:23:54;6.28;;;2.90;;
71753;SDS011;59593;51.716;7.016;2024-02-16T09:26:23;8.93;;;2.85;;
71753;SDS011;59593;51.716;7.016;2024-02-16T09:28:51;6.38;;;2.80;;
71753;SDS011;59593;51.716;7.016;2024-02-16T09:31:18;8.23;;;3.03;;
71753;SDS011;59593;51.716;7.016;2024-02-16T09:33:43;5.82;;;2.60;;
71753;SDS011;59593;51.716;7.016;2024-02-16T09:36:09;5.18;;;2.58;;
71753;SDS011;59593;51.716;7.016;2024-02-16T09:38:36;6.93;;;3.40;;
71753;SDS011;59593;51.716;7.016;2024-02-16T09:41:01;7.10;;;2.70;;
71753;SDS011;59593;51.716;7.016;2024-02-16T09:43:27;6.40;;;2.75;;
71753;SDS011;59593;51.716;7.016;2024-02-16T09:45:55;7.18;;;3.15;;
71753;SDS011;59593;51.716;7.016;2024-02-16T09:48:21;6.03;;;3.20;;
71753;SDS011;59593;51.716;7.016;2024-02-16T09:50:48;4.85;;;2.90;;
71753;SDS011;59593;51.716;7.016;2024-02-16T09:53:22;5.07;;;3.47;;
71753;SDS011;59593;51.716;7.016;2024-02-16T09:55:51;6.32;;;3.10;;
71753;SDS011;59593;51.716;7.016;2024-02-16T09:58:17;8.85;;;3.25;;
71753;SDS011;59593;51.716;7.016;2024-02-16T10:00:48;7.95;;;3.50;;
71753;SDS011;59593;51.716;7.016;2024-02-16T10:03:23;5.75;;;3.33;;
71753;SDS011;59593;51.716;7.016;2024-02-16T10:05:50;9.30;;;3.88;;
71753;SDS011;59593;51.716;7.016;2024-02-16T10:08:17;8.93;;;3.78;;
71753;SDS011;59593;51.716;7.016;2024-02-16T10:10:43;6.60;;;3.80;;
71753;SDS011;59593;51.716;7.016;2024-02-16T10:13:09;6.53;;;3.45;;
71753;SDS011;59593;51.716;7.016;2024-02-16T10:15:36;9.93;;;4.05;;
71753;SDS011;59593;51.716;7.016;2024-02-16T10:18:03;6.82;;;4.20;;
71753;SDS011;59593;51.716;7.016;2024-02-16T10:20:30;9.93;;;4.00;;
71753;SDS011;59593;51.716;7.016;2024-02-16T10:23:05;7.70;;;3.83;;
71753;SDS011;59593;51.716;7.016;2024-02-16T10:25:32;8.90;;;3.65;;
71753;SDS011;59593;51.716;7.016;2024-02-16T10:27:59;7.60;;;3.85;;
71753;SDS011;59593;51.716;7.016;2024-02-16T10:30:36;8.68;;;3.40;;
71753;SDS011;59593;51.716;7.016;2024-02-16T10:33:03;7.45;;;3.60;;
71753;SDS011;59593;51.716;7.016;2024-02-16T10:35:30;6.57;;;3.70;;
71753;SDS011;59593;51.716;7.016;2024-02-16T10:37:58;7.45;;;3.65;;
71753;SDS011;59593;51.716;7.016;2024-02-16T10:40:40;7.60;;;3.95;;
71753;SDS011;59593;51.716;7.016;2024-02-16T10:43:07;9.43;;;4.18;;
71753;SDS011;59593;51.716;7.016;2024-02-16T10:45:35;9.00;;;4.50;;
71753;SDS011;59593;51.716;7.016;2024-02-16T10:48:02;8.98;;;3.83;;
71753;SDS011;59593;51.716;7.016;2024-02-16T10:50:29;7.15;;;3.97;;
71753;SDS011;59593;51.716;7.016;2024-02-16T10:52:57;7.28;;;4.13;;
71753;SDS011;59593;51.716;7.016;2024-02-16T10:55:25;9.15;;;4.22;;
71753;SDS011;59593;51.716;7.016;2024-02-16T10:57:51;9.35;;;4.20;;
71753;SDS011;59593;51.716;7.016;2024-02-16T11:00:19;7.88;;;3.80;;
71753;SDS011;59593;51.716;7.016;2024-02-16T11:05:31;7.55;;;4.15;;
71753;SDS011;59593;51.716;7.016;2024-02-16T11:08:03;7.80;;;3.92;;
71753;SDS011;59593;51.716;7.016;2024-02-16T11:10:36;10.43;;;3.58;;
71753;SDS011;59593;51.716;7.016;2024-02-16T11:13:02;9.55;;;3.70;;
71753;SDS011;59593;51.716;7.016;2024-02-16T11:15:32;10.00;;;3.65;;
71753;SDS011;59593;51.716;7.016;2024-02-16T11:18:01;8.68;;;3.50;;
71753;SDS011;59593;51.716;7.016;2024-02-16T11:20:28;10.88;;;3.58;;
71753;SDS011;59593;51.716;7.016;2024-02-16T11:23:04;7.97;;;3.72;;
71753;SDS011;59593;51.716;7.016;2024-02-16T11:25:34;8.57;;;3.70;;
71753;SDS011;59593;51.716;7.016;2024-02-16T11:28:01;6.80;;;3.55;;
71753;SDS011;59593;51.716;7.016;2024-02-16T11:30:27;8.98;;;3.60;;
71753;SDS011;59593;51.716;7.016;2024-02-16T11:32:53;6.10;;;3.70;;
71753;SDS011;59593;51.716;7.016;2024-02-16T11:35:19;7.35;;;3.88;;
71753;SDS011;59593;51.716;7.016;2024-02-16T11:37:44;7.72;;;3.75;;
71753;SDS011;59593;51.716;7.016;2024-02-16T11:40:12;8.50;;;4.00;;
71753;SDS011;59593;51.716;7.016;2024-02-16T11:42:38;8.60;;;3.75;;
71753;SDS011;59593;51.716;7.016;2024-02-16T11:45:04;6.07;;;3.78;;
71753;SDS011;59593;51.716;7.016;2024-02-16T11:47:31;9.75;;;3.85;;
71753;SDS011;59593;51.716;7.016;2024-02-16T11:50:00;7.93;;;3.92;;
71753;SDS011;59593;51.716;7.016;2024-02-16T11:52:30;8.73;;;3.63;;
71753;SDS011;59593;51.716;7.016;2024-02-16T11:54:56;7.40;;;3.78;;
71753;SDS011;59593;51.716;7.016;2024-02-16T11:57:25;4.60;;;3.63;;
71753;SDS011;59593;51.716;7.016;2024-02-16T11:59:51;9.57;;;4.18;;
71753;SDS011;59593;51.716;7.016;2024-02-16T12:02:17;10.07;;;4.00;;
71753;SDS011;59593;51.716;7.016;2024-02-16T12:04:47;8.75;;;4.03;;
71753;SDS011;59593;51.716;7.016;2024-02-16T12:07:12;9.43;;;4.50;;
71753;SDS011;59593;51.716;7.016;2024-02-16T12:09:39;11.15;;;4.35;;
71753;SDS011;59593;51.716;7.016;2024-02-16T12:12:05;7.72;;;4.35;;
71753;SDS011;59593;51.716;7.016;2024-02-16T12:14:31;8.38;;;4.43;;
71753;SDS011;59593;51.716;7.016;2024-02-16T12:16:58;12.85;;;4.95;;
71753;SDS011;59593;51.716;7.016;2024-02-16T12:19:24;10.25;;;4.90;;
71753;SDS011;59593;51.716;7.016;2024-02-16T12:21:56;9.70;;;4.25;;
71753;SDS011;59593;51.716;7.016;2024-02-16T12:24:23;9.13;;;4.55;;
71753;SDS011;59593;51.716;7.016;2024-02-16T12:26:49;9.88;;;5.05;;
71753;SDS011;59593;51.716;7.016;2024-02-16T12:29:15;7.53;;;4.82;;
71753;SDS011;59593;51.716;7.016;2024-02-16T12:31:42;7.97;;;4.70;;
71753;SDS011;59593;51.716;7.016;2024-02-16T12:34:09;10.55;;;4.45;;
71753;SDS011;59593;51.716;7.016;2024-02-16T12:36:35;7.88;;;4.55;;
71753;SDS011;59593;51.716;7.016;2024-02-16T12:39:03;9.70;;;4.60;;
71753;SDS011;59593;51.716;7.016;2024-02-16T12:41:35;9.75;;;4.53;;
71753;SDS011;59593;51.716;7.016;2024-02-16T12:44:01;8.88;;;4.57;;
71753;SDS011;59593;51.716;7.016;2024-02-16T12:46:27;14.68;;;4.65;;
71753;SDS011;59593;51.716;7.016;2024-02-16T12:48:56;8.73;;;4.55;;
71753;SDS011;59593;51.716;7.016;2024-02-16T12:51:21;13.48;;;5.05;;
71753;SDS011;59593;51.716;7.016;2024-02-16T12:53:47;9.50;;;4.68;;
71753;SDS011;59593;51.716;7.016;2024-02-16T12:56:13;7.18;;;4.22;;
71753;SDS011;59593;51.716;7.016;2024-02-16T12:58:39;10.68;;;5.40;;
71753;SDS011;59593;51.716;7.016;2024-02-16T13:01:07;11.45;;;5.10;;
71753;SDS011;59593;51.716;7.016;2024-02-16T13:03:36;8.80;;;4.97;;
71753;SDS011;59593;51.716;7.016;2024-02-16T13:06:03;11.05;;;4.60;;
71753;SDS011;59593;51.716;7.016;2024-02-16T13:08:29;7.20;;;4.75;;
71753;SDS011;59593;51.716;7.016;2024-02-16T13:10:55;10.68;;;5.30;;
71753;SDS011;59593;51.716;7.016;2024-02-16T13:13:22;13.32;;;5.75;;
71753;SDS011;59593;51.716;7.016;2024-02-16T13:15:48;12.70;;;5.55;;
71753;SDS011;59593;51.716;7.016;2024-02-16T13:18:14;8.60;;;5.32;;
71753;SDS011;59593;51.716;7.016;2024-02-16T13:20:40;9.00;;;5.30;;
71753;SDS011;59593;51.716;7.016;2024-02-16T13:23:05;13.18;;;5.75;;
71753;SDS011;59593;51.716;7.016;2024-02-16T13:25:31;10.23;;;6.07;;
71753;SDS011;59593;51.716;7.016;2024-02-16T13:27:57;9.38;;;6.32;;
71753;SDS011;59593;51.716;7.016;2024-02-16T13:30:22;12.40;;;5.95;;
71753;SDS011;59593;51.716;7.016;2024-02-16T13:32:48;12.48;;;6.65;;
71753;SDS011;59593;51.716;7.016;2024-02-16T13:35:14;10.13;;;6.30;;
71753;SDS011;59593;51.716;7.016;2024-02-16T13:37:40;14.68;;;6.90;;
71753;SDS011;59593;51.716;7.016;2024-02-16T13:40:06;14.23;;;7.10;;
71753;SDS011;59593;51.716;7.016;2024-02-16T13:42:36;11.70;;;8.10;;
71753;SDS011;59593;51.716;7.016;2024-02-16T13:45:05;11.75;;;8.27;;
71753;SDS011;59593;51.716;7.016;2024-02-16T13:47:32;12.75;;;8.52;;
71753;SDS011;59593;51.716;7.016;2024-02-16T13:49:57;16.67;;;9.18;;
71753;SDS011;59593;51.716;7.016;2024-02-16T13:52:24;14.43;;;9.75;;
71753;SDS011;59593;51.716;7.016;2024-02-16T13:54:50;14.65;;;9.07;;
71753;SDS011;59593;51.716;7.016;2024-02-16T13:57:17;15.55;;;10.07;;
71753;SDS011;59593;51.716;7.016;2024-02-16T13:59:43;16.85;;;10.23;;
71753;SDS011;59593;51.716;7.016;2024-02-16T14:02:09;19.90;;;10.13;;
71753;SDS011;59593;51.716;7.016;2024-02-16T14:04:35;14.55;;;10.25;;
71753;SDS011;59593;51.716;7.016;2024-02-16T14:07:01;15.80;;;10.68;;
71753;SDS011;59593;51.716;7.016;2024-02-16T14:09:27;15.82;;;10.05;;
71753;SDS011;59593;51.716;7.016;2024-02-16T14:11:53;15.93;;;10.20;;
71753;SDS011;59593;51.716;7.016;2024-02-16T14:14:20;15.77;;;10.10;;
71753;SDS011;59593;51.716;7.016;2024-02-16T14:16:46;15.00;;;10.82;;
71753;SDS011;59593;51.716;7.016;2024-02-16T14:19:12;20.85;;;11.35;;
71753;SDS011;59593;51.716;7.016;2024-02-16T14:21:37;15.52;;;10.73;;
71753;SDS011;59593;51.716;7.016;2024-02-16T14:24:03;19.80;;;12.18;;
71753;SDS011;59593;51.716;7.016;2024-02-16T14:26:28;16.02;;;10.15;;
71753;SDS011;59593;51.716;7.016;2024-02-16T14:28:54;14.88;;;10.95;;
71753;SDS011;59593;51.716;7.016;2024-02-16T14:31:20;17.48;;;11.13;;
71753;SDS011;59593;51.716;7.016;2024-02-16T14:33:47;15.80;;;10.60;;
71753;SDS011;59593;51.716;7.016;2024-02-16T14:36:13;21.08;;;12.60;;
71753;SDS011;59593;51.716;7.016;2024-02-16T14:38:39;16.23;;;11.32;;
71753;SDS011;59593;51.716;7.016;2024-02-16T14:41:05;14.75;;;10.88;;
71753;SDS011;59593;51.716;7.016;2024-02-16T14:43:31;14.05;;;10.63;;